sensor_id;sensor_type;location;lat;lon;timestamp;pressure;altitude;pressure_sealevel;temperature;humidity
59588;BME280;45412;54.472;18.464;2024-01-15T00:02:21;97025.33;;;0.11;100.00
59588;BME280;45412;54.472;18.464;2024-01-15T00:05:09;97020.18;;;0.10;100.00
59588;BME280;45412;54.472;18.464;2024-01-15T00:07:56;97023.19;;;0.08;100.00
59588;BME280;45412;54.472;18.464;2024-01-15T00:10:45;97023.13;;;0.04;100.00
59588;BME280;45412;54.472;18.464;2024-01-15T00:13:33;97018.55;;;0.05;100.00
59588;BME280;45412;54.472;18.464;2024-01-15T00:16:21;97016.17;;;0.06;100.00
59588;BME280;45412;54.472;18.464;2024-01-15T00:19:09;97011.48;;;0.08;100.00
59588;BME280;45412;54.472;18.464;2024-01-15T00:21:57;97009.02;;;0.08;100.00
59588;BME280;45412;54.472;18.464;2024-01-15T00:24:46;97007.05;;;0.11;100.00
59588;BME280;45412;54.472;18.464;2024-01-15T00:27:34;97002.64;;;0.14;100.00
59588;BME280;45412;54.472;18.464;2024-01-15T00:30:22;96990.98;;;0.16;100.00
59588;BME280;45412;54.472;18.464;2024-01-15T00:33:10;96984.66;;;0.16;100.00
59588;BME280;45412;54.472;18.464;2024-01-15T00:36:00;96975.80;;;0.16;100.00
59588;BME280;45412;54.472;18.464;2024-01-15T00:38:48;96971.80;;;0.13;100.00
59588;BME280;45412;54.472;18.464;2024-01-15T00:41:36;96965.34;;;0.14;100.00
59588;BME280;45412;54.472;18.464;2024-01-15T00:44:24;96953.47;;;0.14;100.00
59588;BME280;45412;54.472;18.464;2024-01-15T00:47:12;96949.34;;;0.15;100.00
59588;BME280;45412;54.472;18.464;2024-01-15T00:50:00;96949.27;;;0.14;100.00
59588;BME280;45412;54.472;18.464;2024-01-15T00:52:48;96943.27;;;0.15;100.00
59588;BME280;45412;54.472;18.464;2024-01-15T00:55:36;96938.56;;;0.17;100.00
59588;BME280;45412;54.472;18.464;2024-01-15T00:58:26;96940.38;;;0.18;100.00
59588;BME280;45412;54.472;18.464;2024-01-15T01:01:14;96934.15;;;0.18;100.00
59588;BME280;45412;54.472;18.464;2024-01-15T01:04:02;96931.48;;;0.18;100.00
59588;BME280;45412;54.472;18.464;2024-01-15T01:06:50;96927.35;;;0.18;100.00
59588;BME280;45412;54.472;18.464;2024-01-15T01:09:38;96921.57;;;0.16;100.00
59588;BME280;45412;54.472;18.464;2024-01-15T01:12:27;96918.47;;;0.13;100.00
59588;BME280;45412;54.472;18.464;2024-01-15T01:15:15;96916.33;;;0.12;100.00
59588;BME280;45412;54.472;18.464;2024-01-15T01:18:03;96908.25;;;0.10;100.00
59588;BME280;45412;54.472;18.464;2024-01-15T01:20:51;96908.02;;;0.09;100.00
59588;BME280;45412;54.472;18.464;2024-01-15T01:23:40;96901.27;;;0.08;100.00
59588;BME280;45412;54.472;18.464;2024-01-15T01:26:28;96898.66;;;0.09;100.00
59588;BME280;45412;54.472;18.464;2024-01-15T01:29:15;96892.23;;;0.08;100.00
59588;BME280;45412;54.472;18.464;2024-01-15T01:32:03;96882.45;;;0.08;100.00
59588;BME280;45412;54.472;18.464;2024-01-15T01:34:51;96879.60;;;0.07;100.00
59588;BME280;45412;54.472;18.464;2024-01-15T01:37:39;96872.36;;;0.08;100.00
59588;BME280;45412;54.472;18.464;2024-01-15T01:40:26;96871.30;;;0.08;100.00
59588;BME280;45412;54.472;18.464;2024-01-15T01:43:14;96869.23;;;0.06;100.00
59588;BME280;45412;54.472;18.464;2024-01-15T01:46:02;96865.27;;;0.06;100.00
59588;BME280;45412;54.472;18.464;2024-01-15T01:48:50;96863.64;;;0.06;100.00
59588;BME280;45412;54.472;18.464;2024-01-15T01:51:39;96861.24;;;0.08;100.00
59588;BME280;45412;54.472;18.464;2024-01-15T01:54:29;96858.23;;;0.08;100.00
59588;BME280;45412;54.472;18.464;2024-01-15T01:57:19;96850.56;;;0.08;100.00
59588;BME280;45412;54.472;18.464;2024-01-15T02:00:08;96847.02;;;0.09;100.00
59588;BME280;45412;54.472;18.464;2024-01-15T02:02:59;96839.05;;;0.08;100.00
59588;BME280;45412;54.472;18.464;2024-01-15T02:05:48;96834.22;;;0.02;100.00
59588;BME280;45412;54.472;18.464;2024-01-15T02:08:37;96827.94;;;-0.03;100.00
59588;BME280;45412;54.472;18.464;2024-01-15T02:11:26;96826.36;;;-0.07;100.00
59588;BME280;45412;54.472;18.464;2024-01-15T02:14:14;96819.16;;;-0.10;100.00
59588;BME280;45412;54.472;18.464;2024-01-15T02:17:03;96811.17;;;-0.14;100.00
59588;BME280;45412;54.472;18.464;2024-01-15T02:19:51;96806.95;;;-0.18;100.00
59588;BME280;45412;54.472;18.464;2024-01-15T02:22:39;96798.82;;;-0.23;100.00
59588;BME280;45412;54.472;18.464;2024-01-15T02:25:26;96795.05;;;-0.25;100.00
59588;BME280;45412;54.472;18.464;2024-01-15T02:28:17;96793.33;;;-0.28;100.00
59588;BME280;45412;54.472;18.464;2024-01-15T02:31:05;96789.34;;;-0.30;100.00
59588;BME280;45412;54.472;18.464;2024-01-15T02:33:53;96780.50;;;-0.28;100.00
59588;BME280;45412;54.472;18.464;2024-01-15T02:36:41;96775.83;;;-0.27;100.00
59588;BME280;45412;54.472;18.464;2024-01-15T02:39:29;96772.13;;;-0.26;100.00
59588;BME280;45412;54.472;18.464;2024-01-15T02:42:17;96766.98;;;-0.29;100.00
59588;BME280;45412;54.472;18.464;2024-01-15T02:45:05;96759.40;;;-0.36;100.00
59588;BME280;45412;54.472;18.464;2024-01-15T02:47:54;96762.01;;;-0.37;100.00
59588;BME280;45412;54.472;18.464;2024-01-15T02:50:42;96760.30;;;-0.39;100.00
59588;BME280;45412;54.472;18.464;2024-01-15T02:53:31;96760.73;;;-0.42;100.00
59588;BME280;45412;54.472;18.464;2024-01-15T02:56:18;96743.70;;;-0.51;100.00
59588;BME280;45412;54.472;18.464;2024-01-15T02:59:06;96738.48;;;-0.48;100.00
59588;BME280;45412;54.472;18.464;2024-01-15T03:01:54;96737.25;;;-0.45;100.00
59588;BME280;45412;54.472;18.464;2024-01-15T03:04:44;96727.64;;;-0.44;100.00
59588;BME280;45412;54.472;18.464;2024-01-15T03:07:33;96720.88;;;-0.42;100.00
59588;BME280;45412;54.472;18.464;2024-01-15T03:10:21;96723.94;;;-0.40;100.00
59588;BME280;45412;54.472;18.464;2024-01-15T03:13:09;96712.50;;;-0.42;100.00
59588;BME280;45412;54.472;18.464;2024-01-15T03:15:56;96704.98;;;-0.44;100.00
59588;BME280;45412;54.472;18.464;2024-01-15T03:18:44;96701.52;;;-0.44;100.00
59588;BME280;45412;54.472;18.464;2024-01-15T03:21:32;96697.11;;;-0.48;100.00
59588;BME280;45412;54.472;18.464;2024-01-15T03:24:20;96694.08;;;-0.51;100.00
59588;BME280;45412;54.472;18.464;2024-01-15T03:27:08;96690.16;;;-0.52;100.00
59588;BME280;45412;54.472;18.464;2024-01-15T03:29:56;96684.07;;;-0.54;100.00
59588;BME280;45412;54.472;18.464;2024-01-15T03:32:44;96689.36;;;-0.51;100.00
59588;BME280;45412;54.472;18.464;2024-01-15T03:35:32;96680.30;;;-0.53;100.00
59588;BME280;45412;54.472;18.464;2024-01-15T03:38:19;96676.70;;;-0.51;100.00
59588;BME280;45412;54.472;18.464;2024-01-15T03:41:07;96675.03;;;-0.50;100.00
59588;BME280;45412;54.472;18.464;2024-01-15T03:43:55;96673.96;;;-0.50;100.00
59588;BME280;45412;54.472;18.464;2024-01-15T03:46:44;96667.49;;;-0.50;100.00
59588;BME280;45412;54.472;18.464;2024-01-15T03:49:31;96664.71;;;-0.50;100.00
59588;BME280;45412;54.472;18.464;2024-01-15T03:52:19;96662.09;;;-0.49;100.00
59588;BME280;45412;54.472;18.464;2024-01-15T03:55:07;96655.70;;;-0.52;100.00
59588;BME280;45412;54.472;18.464;2024-01-15T03:57:55;96652.02;;;-0.54;100.00
59588;BME280;45412;54.472;18.464;2024-01-15T04:00:43;96647.35;;;-0.56;100.00
59588;BME280;45412;54.472;18.464;2024-01-15T04:03:31;96644.27;;;-0.55;100.00
59588;BME280;45412;54.472;18.464;2024-01-15T04:06:19;96645.39;;;-0.56;100.00
59588;BME280;45412;54.472;18.464;2024-01-15T04:09:07;96639.98;;;-0.56;100.00
59588;BME280;45412;54.472;18.464;2024-01-15T04:11:55;96637.92;;;-0.54;100.00
59588;BME280;45412;54.472;18.464;2024-01-15T04:14:43;96634.21;;;-0.56;100.00
59588;BME280;45412;54.472;18.464;2024-01-15T04:17:30;96628.27;;;-0.55;100.00
59588;BME280;45412;54.472;18.464;2024-01-15T04:20:18;96627.06;;;-0.55;100.00
59588;BME280;45412;54.472;18.464;2024-01-15T04:23:09;96615.98;;;-0.54;100.00
59588;BME280;45412;54.472;18.464;2024-01-15T04:25:57;96615.39;;;-0.55;100.00
59588;BME280;45412;54.472;18.464;2024-01-15T04:28:45;96611.33;;;-0.55;100.00
59588;BME280;45412;54.472;18.464;2024-01-15T04:31:33;96609.49;;;-0.54;100.00
59588;BME280;45412;54.472;18.464;2024-01-15T04:34:21;96606.34;;;-0.51;100.00
59588;BME280;45412;54.472;18.464;2024-01-15T04:37:09;96604.02;;;-0.51;100.00
59588;BME280;45412;54.472;18.464;2024-01-15T04:39:57;96598.20;;;-0.52;100.00
59588;BME280;45412;54.472;18.464;2024-01-15T04:42:45;96594.42;;;-0.53;100.00
59588;BME280;45412;54.472;18.464;2024-01-15T04:45:33;96595.35;;;-0.51;100.00
59588;BME280;45412;54.472;18.464;2024-01-15T04:48:21;96590.44;;;-0.53;100.00
59588;BME280;45412;54.472;18.464;2024-01-15T04:51:10;96590.85;;;-0.49;100.00
59588;BME280;45412;54.472;18.464;2024-01-15T04:53:58;96586.79;;;-0.47;100.00
59588;BME280;45412;54.472;18.464;2024-01-15T04:56:46;96586.63;;;-0.45;100.00
59588;BME280;45412;54.472;18.464;2024-01-15T04:59:34;96583.42;;;-0.44;100.00
59588;BME280;45412;54.472;18.464;2024-01-15T05:02:22;96580.36;;;-0.43;100.00
59588;BME280;45412;54.472;18.464;2024-01-15T05:05:11;96578.97;;;-0.39;100.00
59588;BME280;45412;54.472;18.464;2024-01-15T05:07:59;96576.13;;;-0.37;100.00
59588;BME280;45412;54.472;18.464;2024-01-15T05:10:47;96574.89;;;-0.42;100.00
59588;BME280;45412;54.472;18.464;2024-01-15T05:13:35;96574.79;;;-0.37;100.00
59588;BME280;45412;54.472;18.464;2024-01-15T05:16:23;96580.61;;;-0.38;100.00
59588;BME280;45412;54.472;18.464;2024-01-15T05:19:12;96569.50;;;-0.37;100.00
59588;BME280;45412;54.472;18.464;2024-01-15T05:22:00;96567.46;;;-0.39;100.00
59588;BME280;45412;54.472;18.464;2024-01-15T05:24:48;96565.07;;;-0.44;100.00
59588;BME280;45412;54.472;18.464;2024-01-15T05:27:36;96567.54;;;-0.46;100.00
59588;BME280;45412;54.472;18.464;2024-01-15T05:30:25;96567.59;;;-0.48;100.00
59588;BME280;45412;54.472;18.464;2024-01-15T05:33:13;96566.57;;;-0.53;100.00
59588;BME280;45412;54.472;18.464;2024-01-15T05:36:01;96566.59;;;-0.55;100.00
59588;BME280;45412;54.472;18.464;2024-01-15T05:38:50;96565.81;;;-0.58;100.00
59588;BME280;45412;54.472;18.464;2024-01-15T05:41:38;96565.86;;;-0.62;100.00
59588;BME280;45412;54.472;18.464;2024-01-15T05:44:26;96568.04;;;-0.69;100.00
59588;BME280;45412;54.472;18.464;2024-01-15T05:47:14;96567.52;;;-0.75;100.00
59588;BME280;45412;54.472;18.464;2024-01-15T05:50:02;96565.66;;;-0.80;100.00
59588;BME280;45412;54.472;18.464;2024-01-15T05:52:50;96567.27;;;-0.87;100.00
59588;BME280;45412;54.472;18.464;2024-01-15T05:55:38;96556.83;;;-0.95;100.00
59588;BME280;45412;54.472;18.464;2024-01-15T05:58:26;96558.39;;;-1.05;100.00
59588;BME280;45412;54.472;18.464;2024-01-15T06:01:14;96555.44;;;-1.13;100.00
59588;BME280;45412;54.472;18.464;2024-01-15T06:04:02;96554.55;;;-1.21;100.00
59588;BME280;45412;54.472;18.464;2024-01-15T06:06:50;96557.86;;;-1.27;100.00
59588;BME280;45412;54.472;18.464;2024-01-15T06:09:38;96557.09;;;-1.30;100.00
59588;BME280;45412;54.472;18.464;2024-01-15T06:12:28;96550.32;;;-1.34;100.00
59588;BME280;45412;54.472;18.464;2024-01-15T06:15:15;96543.65;;;-1.40;100.00
59588;BME280;45412;54.472;18.464;2024-01-15T06:18:04;96541.56;;;-1.46;100.00
59588;BME280;45412;54.472;18.464;2024-01-15T06:20:52;96542.98;;;-1.50;100.00
59588;BME280;45412;54.472;18.464;2024-01-15T06:23:40;96540.63;;;-1.53;100.00
59588;BME280;45412;54.472;18.464;2024-01-15T06:26:28;96538.37;;;-1.54;100.00
59588;BME280;45412;54.472;18.464;2024-01-15T06:29:16;96540.28;;;-1.50;100.00
59588;BME280;45412;54.472;18.464;2024-01-15T06:32:05;96537.61;;;-1.47;100.00
59588;BME280;45412;54.472;18.464;2024-01-15T06:34:53;96529.86;;;-1.48;100.00
59588;BME280;45412;54.472;18.464;2024-01-15T06:37:40;96528.19;;;-1.42;100.00
59588;BME280;45412;54.472;18.464;2024-01-15T06:40:28;96528.73;;;-1.39;100.00
59588;BME280;45412;54.472;18.464;2024-01-15T06:43:17;96529.20;;;-1.34;100.00
59588;BME280;45412;54.472;18.464;2024-01-15T06:46:05;96527.36;;;-1.26;100.00
59588;BME280;45412;54.472;18.464;2024-01-15T06:48:55;96525.81;;;-1.21;100.00
59588;BME280;45412;54.472;18.464;2024-01-15T06:51:43;96519.66;;;-1.18;100.00
59588;BME280;45412;54.472;18.464;2024-01-15T06:54:35;96517.19;;;-1.21;100.00
59588;BME280;45412;54.472;18.464;2024-01-15T06:57:23;96518.98;;;-1.16;100.00
59588;BME280;45412;54.472;18.464;2024-01-15T07:00:12;96517.64;;;-1.17;100.00
59588;BME280;45412;54.472;18.464;2024-01-15T07:03:00;96510.46;;;-1.18;100.00
59588;BME280;45412;54.472;18.464;2024-01-15T07:05:49;96510.03;;;-1.21;100.00
59588;BME280;45412;54.472;18.464;2024-01-15T07:08:39;96508.15;;;-1.22;100.00
59588;BME280;45412;54.472;18.464;2024-01-15T07:11:27;96503.46;;;-1.19;100.00
59588;BME280;45412;54.472;18.464;2024-01-15T07:14:15;96499.91;;;-1.17;100.00
59588;BME280;45412;54.472;18.464;2024-01-15T07:17:04;96500.92;;;-1.10;100.00
59588;BME280;45412;54.472;18.464;2024-01-15T07:19:52;96495.42;;;-1.07;100.00
59588;BME280;45412;54.472;18.464;2024-01-15T07:22:41;96494.54;;;-1.03;100.00
59588;BME280;45412;54.472;18.464;2024-01-15T07:25:28;96490.56;;;-1.03;100.00
59588;BME280;45412;54.472;18.464;2024-01-15T07:28:16;96491.71;;;-1.03;100.00
59588;BME280;45412;54.472;18.464;2024-01-15T07:31:04;96492.31;;;-1.06;100.00
59588;BME280;45412;54.472;18.464;2024-01-15T07:33:54;96493.67;;;-1.09;100.00
59588;BME280;45412;54.472;18.464;2024-01-15T07:36:43;96487.96;;;-1.10;100.00
59588;BME280;45412;54.472;18.464;2024-01-15T07:39:31;96486.14;;;-1.08;100.00
59588;BME280;45412;54.472;18.464;2024-01-15T07:42:19;96485.28;;;-1.07;100.00
59588;BME280;45412;54.472;18.464;2024-01-15T07:45:07;96485.89;;;-1.04;100.00
59588;BME280;45412;54.472;18.464;2024-01-15T07:47:55;96487.16;;;-1.00;100.00
59588;BME280;45412;54.472;18.464;2024-01-15T07:50:43;96483.98;;;-0.94;100.00
59588;BME280;45412;54.472;18.464;2024-01-15T07:53:31;96475.32;;;-0.86;100.00
59588;BME280;45412;54.472;18.464;2024-01-15T07:56:19;96471.52;;;-0.81;100.00
59588;BME280;45412;54.472;18.464;2024-01-15T07:59:07;96471.48;;;-0.72;100.00
59588;BME280;45412;54.472;18.464;2024-01-15T08:01:58;96474.76;;;-0.64;100.00
59588;BME280;45412;54.472;18.464;2024-01-15T08:04:46;96472.71;;;-0.57;100.00
59588;BME280;45412;54.472;18.464;2024-01-15T08:07:34;96473.63;;;-0.51;100.00
59588;BME280;45412;54.472;18.464;2024-01-15T08:10:22;96470.16;;;-0.43;100.00
59588;BME280;45412;54.472;18.464;2024-01-15T08:13:10;96463.50;;;-0.37;100.00
59588;BME280;45412;54.472;18.464;2024-01-15T08:15:58;96464.69;;;-0.35;100.00
59588;BME280;45412;54.472;18.464;2024-01-15T08:18:47;96461.08;;;-0.38;100.00
59588;BME280;45412;54.472;18.464;2024-01-15T08:21:35;96452.09;;;-0.34;100.00
59588;BME280;45412;54.472;18.464;2024-01-15T08:24:23;96461.69;;;-0.19;100.00
59588;BME280;45412;54.472;18.464;2024-01-15T08:27:11;96458.02;;;-0.07;100.00
59588;BME280;45412;54.472;18.464;2024-01-15T08:29:59;96457.36;;;0.09;100.00
59588;BME280;45412;54.472;18.464;2024-01-15T08:32:47;96457.23;;;0.44;100.00
59588;BME280;45412;54.472;18.464;2024-01-15T08:35:35;96452.35;;;1.61;100.00
59588;BME280;45412;54.472;18.464;2024-01-15T08:38:23;96449.17;;;2.17;97.61
59588;BME280;45412;54.472;18.464;2024-01-15T08:41:13;96452.06;;;1.92;95.43
59588;BME280;45412;54.472;18.464;2024-01-15T08:44:01;96442.58;;;1.63;98.12
59588;BME280;45412;54.472;18.464;2024-01-15T08:46:51;96447.81;;;1.47;99.82
59588;BME280;45412;54.472;18.464;2024-01-15T08:49:38;96446.73;;;1.17;100.00
59588;BME280;45412;54.472;18.464;2024-01-15T08:52:29;96464.33;;;0.93;100.00
59588;BME280;45412;54.472;18.464;2024-01-15T08:55:18;96452.69;;;0.65;100.00
59588;BME280;45412;54.472;18.464;2024-01-15T08:58:06;96451.73;;;0.44;100.00
59588;BME280;45412;54.472;18.464;2024-01-15T09:00:54;96450.22;;;0.28;100.00
59588;BME280;45412;54.472;18.464;2024-01-15T09:03:42;96443.52;;;0.16;100.00
59588;BME280;45412;54.472;18.464;2024-01-15T09:06:31;96438.45;;;0.03;100.00
59588;BME280;45412;54.472;18.464;2024-01-15T09:09:19;96433.85;;;-0.08;100.00
59588;BME280;45412;54.472;18.464;2024-01-15T09:12:08;96436.31;;;-0.14;100.00
59588;BME280;45412;54.472;18.464;2024-01-15T09:14:56;96436.61;;;-0.10;100.00
59588;BME280;45412;54.472;18.464;2024-01-15T09:17:44;96437.34;;;0.52;100.00
59588;BME280;45412;54.472;18.464;2024-01-15T09:20:32;96435.04;;;2.59;100.00
59588;BME280;45412;54.472;18.464;2024-01-15T09:23:20;96427.98;;;4.54;93.33
59588;BME280;45412;54.472;18.464;2024-01-15T09:26:08;96423.54;;;6.07;84.30
59588;BME280;45412;54.472;18.464;2024-01-15T09:28:57;96409.23;;;7.75;77.10
59588;BME280;45412;54.472;18.464;2024-01-15T09:31:45;96401.85;;;8.96;64.66
59588;BME280;45412;54.472;18.464;2024-01-15T09:34:34;96408.81;;;8.70;61.64
59588;BME280;45412;54.472;18.464;2024-01-15T09:37:23;96413.73;;;7.05;64.14
59588;BME280;45412;54.472;18.464;2024-01-15T09:40:31;96408.34;;;5.47;69.16
59588;BME280;45412;54.472;18.464;2024-01-15T09:43:22;96407.59;;;4.36;75.32
59588;BME280;45412;54.472;18.464;2024-01-15T09:46:11;96405.92;;;3.88;78.79
59588;BME280;45412;54.472;18.464;2024-01-15T09:48:59;96408.06;;;3.62;79.84
59588;BME280;45412;54.472;18.464;2024-01-15T09:51:49;96405.27;;;3.84;81.04
59588;BME280;45412;54.472;18.464;2024-01-15T09:54:49;96392.23;;;4.24;79.55
59588;BME280;45412;54.472;18.464;2024-01-15T09:57:39;96395.26;;;3.99;78.01
59588;BME280;45412;54.472;18.464;2024-01-15T10:00:28;96393.02;;;3.53;78.32
59588;BME280;45412;54.472;18.464;2024-01-15T10:03:17;96391.44;;;2.98;79.65
59588;BME280;45412;54.472;18.464;2024-01-15T10:06:07;96398.87;;;2.53;81.69
59588;BME280;45412;54.472;18.464;2024-01-15T10:08:57;96394.84;;;2.11;83.44
59588;BME280;45412;54.472;18.464;2024-01-15T10:11:48;96391.98;;;1.77;85.30
59588;BME280;45412;54.472;18.464;2024-01-15T10:14:36;96377.40;;;3.78;83.03
59588;BME280;45412;54.472;18.464;2024-01-15T10:17:24;96371.25;;;6.46;71.96
59588;BME280;45412;54.472;18.464;2024-01-15T10:20:15;96360.33;;;8.37;61.78
59588;BME280;45412;54.472;18.464;2024-01-15T10:23:03;96351.47;;;9.37;56.40
59588;BME280;45412;54.472;18.464;2024-01-15T10:25:51;96355.73;;;8.32;56.36
59588;BME280;45412;54.472;18.464;2024-01-15T10:28:40;96354.18;;;7.27;59.13
59588;BME280;45412;54.472;18.464;2024-01-15T10:31:28;96354.70;;;7.47;58.99
59588;BME280;45412;54.472;18.464;2024-01-15T10:34:19;96353.25;;;6.29;60.25
59588;BME280;45412;54.472;18.464;2024-01-15T10:37:09;96357.34;;;4.88;66.69
59588;BME280;45412;54.472;18.464;2024-01-15T10:39:57;96365.71;;;3.85;73.03
59588;BME280;45412;54.472;18.464;2024-01-15T10:42:45;96378.62;;;2.92;78.68
59588;BME280;45412;54.472;18.464;2024-01-15T10:45:35;96388.42;;;2.08;85.73
59588;BME280;45412;54.472;18.464;2024-01-15T10:48:23;96384.83;;;1.43;90.92
59588;BME280;45412;54.472;18.464;2024-01-15T10:51:10;96389.96;;;0.77;97.16
59588;BME280;45412;54.472;18.464;2024-01-15T10:53:59;96384.23;;;0.44;99.51
59588;BME280;45412;54.472;18.464;2024-01-15T10:56:50;96383.75;;;0.38;100.00
59588;BME280;45412;54.472;18.464;2024-01-15T10:59:41;96389.30;;;0.38;100.00
59588;BME280;45412;54.472;18.464;2024-01-15T11:02:30;96385.35;;;0.43;100.00
59588;BME280;45412;54.472;18.464;2024-01-15T11:05:18;96378.64;;;0.49;99.97
59588;BME280;45412;54.472;18.464;2024-01-15T11:08:10;96374.44;;;0.47;99.66
59588;BME280;45412;54.472;18.464;2024-01-15T11:10:58;96373.89;;;0.48;99.43
59588;BME280;45412;54.472;18.464;2024-01-15T11:13:48;96372.87;;;0.38;99.14
59588;BME280;45412;54.472;18.464;2024-01-15T11:16:59;96373.49;;;0.36;99.91
59588;BME280;45412;54.472;18.464;2024-01-15T11:19:49;96368.23;;;0.36;99.92
59588;BME280;45412;54.472;18.464;2024-01-15T11:22:48;96368.98;;;0.30;100.00
59588;BME280;45412;54.472;18.464;2024-01-15T11:25:37;96365.00;;;0.20;100.00
59588;BME280;45412;54.472;18.464;2024-01-15T11:28:47;96362.74;;;0.18;100.00
59588;BME280;45412;54.472;18.464;2024-01-15T11:34:54;96355.98;;;0.05;100.00
59588;BME280;45412;54.472;18.464;2024-01-15T11:40:39;96339.55;;;0.28;100.00
59588;BME280;45412;54.472;18.464;2024-01-15T11:43:30;96337.81;;;0.69;100.00
59588;BME280;45412;54.472;18.464;2024-01-15T11:46:20;96339.72;;;1.78;97.26
59588;BME280;45412;54.472;18.464;2024-01-15T11:49:10;96331.93;;;2.43;91.15
59588;BME280;45412;54.472;18.464;2024-01-15T11:52:01;96322.52;;;2.20;88.41
59588;BME280;45412;54.472;18.464;2024-01-15T11:57:54;96335.18;;;1.53;89.33
59588;BME280;45412;54.472;18.464;2024-01-15T12:00:48;96323.49;;;1.16;90.59
59588;BME280;45412;54.472;18.464;2024-01-15T12:03:38;96329.17;;;1.10;91.79
59588;BME280;45412;54.472;18.464;2024-01-15T12:06:25;96314.71;;;0.85;91.80
59588;BME280;45412;54.472;18.464;2024-01-15T12:09:13;96313.70;;;0.70;92.74
59588;BME280;45412;54.472;18.464;2024-01-15T12:12:07;96312.65;;;0.62;93.80
59588;BME280;45412;54.472;18.464;2024-01-15T12:15:03;96314.27;;;0.49;94.74
59588;BME280;45412;54.472;18.464;2024-01-15T12:17:51;96309.36;;;0.39;95.61
59588;BME280;45412;54.472;18.464;2024-01-15T12:20:40;96314.45;;;0.40;96.25
59588;BME280;45412;54.472;18.464;2024-01-15T12:23:28;96317.70;;;0.26;97.13
59588;BME280;45412;54.472;18.464;2024-01-15T12:26:16;96321.23;;;0.09;98.16
59588;BME280;45412;54.472;18.464;2024-01-15T12:29:06;96318.89;;;0.03;99.14
59588;BME280;45412;54.472;18.464;2024-01-15T12:31:54;96313.23;;;-0.01;99.99
59588;BME280;45412;54.472;18.464;2024-01-15T12:34:43;96312.30;;;0.02;100.00
59588;BME280;45412;54.472;18.464;2024-01-15T12:37:31;96301.16;;;0.04;100.00
59588;BME280;45412;54.472;18.464;2024-01-15T12:40:22;96301.75;;;0.09;100.00
59588;BME280;45412;54.472;18.464;2024-01-15T12:43:10;96301.76;;;0.12;100.00
59588;BME280;45412;54.472;18.464;2024-01-15T12:45:58;96296.64;;;0.22;100.00
59588;BME280;45412;54.472;18.464;2024-01-15T12:48:47;96294.39;;;0.26;100.00
59588;BME280;45412;54.472;18.464;2024-01-15T12:51:35;96291.77;;;0.17;100.00
59588;BME280;45412;54.472;18.464;2024-01-15T12:54:23;96298.19;;;0.09;100.00
59588;BME280;45412;54.472;18.464;2024-01-15T12:57:11;96299.10;;;0.09;99.85
59588;BME280;45412;54.472;18.464;2024-01-15T12:59:59;96296.32;;;0.29;99.39
59588;BME280;45412;54.472;18.464;2024-01-15T13:02:48;96294.00;;;0.43;96.80
59588;BME280;45412;54.472;18.464;2024-01-15T13:05:37;96292.30;;;0.49;96.32
59588;BME280;45412;54.472;18.464;2024-01-15T13:08:26;96295.64;;;0.53;95.26
59588;BME280;45412;54.472;18.464;2024-01-15T13:11:16;96292.50;;;0.49;94.79
59588;BME280;45412;54.472;18.464;2024-01-15T13:14:05;96293.30;;;0.50;95.06
59588;BME280;45412;54.472;18.464;2024-01-15T13:16:53;96295.56;;;0.48;95.06
59588;BME280;45412;54.472;18.464;2024-01-15T13:19:41;96303.21;;;0.48;95.88
59588;BME280;45412;54.472;18.464;2024-01-15T13:22:29;96302.86;;;0.48;96.64
59588;BME280;45412;54.472;18.464;2024-01-15T13:25:20;96305.25;;;0.45;97.43
59588;BME280;45412;54.472;18.464;2024-01-15T13:28:08;96310.36;;;0.37;98.49
59588;BME280;45412;54.472;18.464;2024-01-15T13:30:56;96319.77;;;0.30;99.81
59588;BME280;45412;54.472;18.464;2024-01-15T13:33:45;96332.14;;;0.19;100.00
59588;BME280;45412;54.472;18.464;2024-01-15T13:36:35;96339.70;;;0.05;100.00
59588;BME280;45412;54.472;18.464;2024-01-15T13:39:23;96350.27;;;-0.07;100.00
59588;BME280;45412;54.472;18.464;2024-01-15T13:42:11;96350.36;;;-0.21;100.00
59588;BME280;45412;54.472;18.464;2024-01-15T13:44:59;96355.30;;;-0.35;100.00
59588;BME280;45412;54.472;18.464;2024-01-15T13:47:47;96364.39;;;-0.53;100.00
59588;BME280;45412;54.472;18.464;2024-01-15T13:50:36;96363.29;;;-0.71;100.00
59588;BME280;45412;54.472;18.464;2024-01-15T13:53:25;96369.83;;;-0.82;100.00
59588;BME280;45412;54.472;18.464;2024-01-15T13:56:16;96370.30;;;-0.91;100.00
59588;BME280;45412;54.472;18.464;2024-01-15T13:59:07;96379.95;;;-1.02;100.00
59588;BME280;45412;54.472;18.464;2024-01-15T14:01:54;96388.27;;;-1.10;100.00
59588;BME280;45412;54.472;18.464;2024-01-15T14:04:43;96400.08;;;-1.19;100.00
59588;BME280;45412;54.472;18.464;2024-01-15T14:07:32;96401.48;;;-1.27;100.00
59588;BME280;45412;54.472;18.464;2024-01-15T14:10:20;96408.29;;;-1.33;100.00
59588;BME280;45412;54.472;18.464;2024-01-15T14:13:08;96427.48;;;-1.38;100.00
59588;BME280;45412;54.472;18.464;2024-01-15T14:15:56;96436.45;;;-1.40;100.00
59588;BME280;45412;54.472;18.464;2024-01-15T14:18:44;96445.98;;;-1.39;100.00
59588;BME280;45412;54.472;18.464;2024-01-15T14:21:32;96454.98;;;-1.39;100.00
59588;BME280;45412;54.472;18.464;2024-01-15T14:24:20;96467.09;;;-1.35;100.00
59588;BME280;45412;54.472;18.464;2024-01-15T14:27:08;96463.34;;;-1.32;100.00
59588;BME280;45412;54.472;18.464;2024-01-15T14:29:57;96465.86;;;-1.30;100.00
59588;BME280;45412;54.472;18.464;2024-01-15T14:32:45;96478.67;;;-1.25;100.00
59588;BME280;45412;54.472;18.464;2024-01-15T14:35:33;96483.70;;;-1.23;100.00
59588;BME280;45412;54.472;18.464;2024-01-15T14:38:21;96489.91;;;-1.22;100.00
59588;BME280;45412;54.472;18.464;2024-01-15T14:41:09;96497.66;;;-1.25;100.00
59588;BME280;45412;54.472;18.464;2024-01-15T14:43:57;96504.14;;;-1.30;100.00
59588;BME280;45412;54.472;18.464;2024-01-15T14:46:45;96501.98;;;-1.33;100.00
59588;BME280;45412;54.472;18.464;2024-01-15T14:49:33;96510.53;;;-1.35;100.00